createdAt,value
2018-06-25T00:00:05.310Z,16.61
2018-06-25T00:01:05.581Z,16.61
2018-06-25T00:02:05.707Z,16.53
2018-06-25T00:03:05.623Z,16.65
2018-06-25T00:04:05.644Z,16.6
2018-06-25T00:05:05.128Z,16.58
2018-06-25T00:06:05.697Z,16.53
2018-06-25T00:07:05.436Z,16.58
2018-06-25T00:08:05.468Z,16.58
2018-06-25T00:09:05.748Z,16.54
2018-06-25T00:10:05.770Z,16.57
2018-06-25T00:11:05.777Z,16.58
2018-06-25T00:12:05.567Z,16.53
2018-06-25T00:13:05.820Z,16.6
2018-06-25T00:14:05.599Z,16.6
2018-06-25T00:15:05.865Z,16.58
2018-06-25T00:16:05.621Z,16.54
2018-06-25T00:17:05.919Z,16.46
2018-06-25T00:18:05.651Z,16.49
2018-06-25T00:19:05.674Z,16.51
2018-06-25T00:20:05.439Z,16.53
2018-06-25T00:21:05.714Z,16.49
2018-06-25T00:22:05.746Z,16.5
2018-06-25T00:23:05.484Z,16.53
2018-06-25T00:24:05.774Z,16.49
2018-06-25T00:25:06.061Z,16.47
2018-06-25T00:26:05.815Z,16.54
2018-06-25T00:27:05.843Z,16.54
2018-06-25T00:28:05.857Z,16.51
2018-06-25T00:29:05.879Z,16.53
2018-06-25T00:30:06.166Z,16.47
2018-06-25T00:31:05.910Z,16.49
2018-06-25T00:32:06.216Z,16.51
2018-06-25T00:33:05.681Z,16.5
2018-06-25T00:34:05.967Z,16.54
2018-06-25T00:35:05.727Z,16.46
2018-06-25T00:36:06.015Z,16.47
2018-06-25T00:37:06.296Z,16.47
2018-06-25T00:38:06.047Z,16.53
2018-06-25T00:39:06.332Z,16.53
2018-06-25T00:40:06.363Z,16.54
2018-06-25T00:41:06.367Z,16.56
2018-06-25T00:42:05.873Z,16.6
2018-06-25T00:43:06.145Z,16.53
2018-06-25T00:44:06.163Z,16.53
2018-06-25T00:45:06.198Z,16.47
2018-06-25T00:46:06.473Z,16.54
2018-06-25T00:47:06.496Z,16.47
2018-06-25T00:48:06.510Z,16.42
2018-06-25T00:49:06.259Z,16.53
2018-06-25T00:50:06.548Z,16.43
2018-06-25T00:51:06.299Z,16.43
2018-06-25T00:52:06.315Z,16.49
2018-06-25T00:53:06.336Z,16.53
2018-06-25T00:54:06.626Z,16.46
2018-06-25T00:55:06.375Z,16.46
2018-06-25T00:56:06.398Z,16.39
2018-06-25T00:57:06.689Z,16.51
2018-06-25T00:58:06.438Z,16.43
2018-06-25T00:59:06.458Z,16.43
2018-06-25T01:00:06.474Z,16.5
2018-06-25T01:01:06.763Z,16.47
2018-06-25T01:02:06.248Z,16.43
2018-06-25T01:03:06.537Z,16.5
2018-06-25T01:04:06.553Z,16.5
2018-06-25T01:05:06.573Z,16.49
2018-06-25T01:06:07.143Z,16.47
2018-06-25T01:07:06.619Z,16.49
2018-06-25T01:08:06.630Z,16.5
2018-06-25T01:09:06.651Z,16.38
2018-06-25T01:10:06.674Z,16.5
2018-06-25T01:11:06.962Z,16.43
2018-06-25T01:12:06.980Z,16.41
2018-06-25T01:13:06.994Z,16.49
2018-06-25T01:14:07.022Z,16.36
2018-06-25T01:15:07.048Z,16.38
2018-06-25T01:16:06.788Z,16.41
2018-06-25T01:17:07.074Z,16.47
2018-06-25T01:18:07.096Z,16.42
2018-06-25T01:19:06.846Z,16.46
2018-06-25T01:20:06.865Z,16.41
2018-06-25T01:21:06.885Z,16.38
2018-06-25T01:22:07.172Z,16.43
2018-06-25T01:23:07.192Z,16.46
2018-06-25T01:24:07.224Z,16.42
2018-06-25T01:25:06.696Z,16.39
2018-06-25T01:26:07.305Z,16.42
2018-06-25T01:27:06.735Z,16.38
2018-06-25T01:28:07.023Z,16.43
2018-06-25T01:29:07.043Z,16.41
2018-06-25T01:30:07.330Z,16.43
2018-06-25T01:31:07.081Z,16.42
2018-06-25T01:32:07.381Z,16.42
2018-06-25T01:33:07.385Z,16.43
2018-06-25T01:34:07.410Z,16.36
2018-06-25T01:35:07.161Z,16.41
2018-06-25T01:36:07.180Z,16.42
2018-06-25T01:37:07.464Z,16.38
2018-06-25T01:38:07.218Z,16.39
2018-06-25T01:39:07.248Z,16.41
2018-06-25T01:40:07.259Z,16.43
2018-06-25T01:41:07.274Z,16.41
2018-06-25T01:42:07.300Z,16.36
2018-06-25T01:43:07.584Z,16.43
2018-06-25T01:44:07.604Z,16.38
2018-06-25T01:45:07.358Z,16.39
2018-06-25T01:46:07.427Z,16.41
2018-06-25T01:47:07.671Z,16.41
2018-06-25T01:48:07.417Z,16.41
2018-06-25T01:49:07.699Z,16.43
2018-06-25T01:50:07.452Z,16.41
2018-06-25T01:51:07.473Z,16.41
2018-06-25T01:52:07.495Z,16.41
2018-06-25T01:53:07.513Z,16.46
2018-06-25T01:54:07.811Z,16.41
2018-06-25T01:55:07.554Z,16.35
2018-06-25T01:56:07.574Z,16.35
2018-06-25T01:57:07.864Z,16.39
2018-06-25T01:58:07.878Z,16.33
2018-06-25T01:59:07.896Z,16.42
2018-06-25T02:00:07.379Z,16.36
2018-06-25T02:01:07.935Z,16.39
2018-06-25T02:02:07.954Z,16.39
2018-06-25T02:03:07.705Z,16.42
2018-06-25T02:04:07.994Z,16.38
2018-06-25T02:05:08.013Z,16.41
2018-06-25T02:06:07.765Z,16.46
2018-06-25T02:07:08.054Z,16.39
2018-06-25T02:08:08.072Z,16.42
2018-06-25T02:09:08.090Z,16.39
2018-06-25T02:10:08.119Z,16.38
2018-06-25T02:11:07.863Z,16.42
2018-06-25T02:12:07.880Z,16.41
2018-06-25T02:13:08.164Z,16.38
2018-06-25T02:14:07.921Z,16.38
2018-06-25T02:15:07.939Z,16.39
2018-06-25T02:16:08.232Z,16.41
2018-06-25T02:17:07.981Z,16.38
2018-06-25T02:18:08.263Z,16.42
2018-06-25T02:19:08.020Z,16.38
2018-06-25T02:20:07.773Z,16.41
2018-06-25T02:21:08.061Z,16.38
2018-06-25T02:22:08.087Z,16.46
2018-06-25T02:23:08.363Z,16.38
2018-06-25T02:24:08.123Z,16.39
2018-06-25T02:25:08.405Z,16.38
2018-06-25T02:26:08.154Z,16.39
2018-06-25T02:27:08.232Z,16.35
2018-06-25T02:28:07.926Z,16.29
2018-06-25T02:29:08.476Z,16.35
2018-06-25T02:30:08.239Z,16.32
2018-06-25T02:31:08.252Z,16.38
2018-06-25T02:32:08.277Z,16.35
2018-06-25T02:33:08.429Z,16.31
2018-06-25T02:34:08.589Z,16.36
2018-06-25T02:35:08.626Z,16.26
2018-06-25T02:36:08.354Z,16.33
2018-06-25T02:37:08.641Z,16.41
2018-06-25T02:38:08.656Z,16.35
2018-06-25T02:39:08.681Z,16.35
2018-06-25T02:40:08.695Z,16.33
2018-06-25T02:41:08.445Z,16.2
2018-06-25T02:42:08.745Z,16.26
2018-06-25T02:43:08.492Z,16.32
2018-06-25T02:44:08.781Z,16.39
2018-06-25T02:45:08.533Z,16.2
2018-06-25T02:46:08.552Z,16.38
2018-06-25T02:47:08.835Z,16.38
2018-06-25T02:48:08.606Z,16.32
2018-06-25T02:49:08.871Z,16.29
2018-06-25T02:50:08.889Z,16.31
2018-06-25T02:51:08.645Z,16.33
2018-06-25T02:52:08.975Z,16.39
2018-06-25T02:53:08.959Z,16.24
2018-06-25T02:54:08.973Z,16.33
2018-06-25T02:55:08.994Z,16.24
2018-06-25T02:56:09.044Z,16.21
2018-06-25T02:57:09.024Z,16.29
2018-06-25T02:58:08.778Z,16.36
2018-06-25T02:59:09.161Z,16.28
2018-06-25T03:00:09.090Z,16.23
2018-06-25T03:01:08.846Z,16.35
2018-06-25T03:02:09.123Z,16.29
2018-06-25T03:03:09.150Z,16.21
2018-06-25T03:04:09.162Z,16.23
2018-06-25T03:05:09.195Z,16.24
2018-06-25T03:06:08.948Z,16.28
2018-06-25T03:07:09.222Z,16.24
2018-06-25T03:08:09.144Z,16.28
2018-06-25T03:09:08.989Z,16.32
2018-06-25T03:10:09.276Z,16.23
2018-06-25T03:11:09.032Z,16.29
2018-06-25T03:12:09.316Z,16.28
2018-06-25T03:13:09.070Z,16.28
2018-06-25T03:14:09.352Z,16.26
2018-06-25T03:15:09.110Z,16.24
2018-06-25T03:16:09.393Z,16.28
2018-06-25T03:17:09.420Z,16.28
2018-06-25T03:18:09.177Z,16.26
2018-06-25T03:19:09.455Z,16.29
2018-06-25T03:20:09.487Z,16.26
2018-06-25T03:21:09.502Z,16.23
2018-06-25T03:22:09.512Z,16.23
2018-06-25T03:23:09.278Z,16.28
2018-06-25T03:24:09.282Z,16.28
2018-06-25T03:25:09.301Z,16.24
2018-06-25T03:26:09.053Z,16.24
2018-06-25T03:27:09.606Z,16.24
2018-06-25T03:28:09.363Z,16.24
2018-06-25T03:29:09.650Z,16.21
2018-06-25T03:30:09.672Z,16.24
2018-06-25T03:31:09.693Z,16.26
2018-06-25T03:32:09.488Z,16.26
2018-06-25T03:33:09.190Z,16.24
2018-06-25T03:34:09.478Z,16.28
2018-06-25T03:35:09.497Z,16.24
2018-06-25T03:36:09.522Z,16.24
2018-06-25T03:37:09.801Z,16.29
2018-06-25T03:38:09.822Z,16.26
2018-06-25T03:39:09.844Z,16.24
2018-06-25T03:40:09.865Z,16.24
2018-06-25T03:41:09.884Z,16.29
2018-06-25T03:42:09.897Z,16.28
2018-06-25T03:43:09.977Z,16.28
2018-06-25T03:44:09.983Z,16.28
2018-06-25T03:45:09.962Z,16.28
2018-06-25T03:46:09.978Z,16.24
2018-06-25T03:47:09.996Z,16.26
2018-06-25T03:48:10.027Z,16.36
2018-06-25T03:49:09.770Z,16.32
2018-06-25T03:50:09.518Z,16.29
2018-06-25T03:51:09.810Z,16.28
2018-06-25T03:52:09.839Z,16.33
2018-06-25T03:53:10.126Z,16.31
2018-06-25T03:54:10.178Z,16.39
2018-06-25T03:55:10.152Z,16.35
2018-06-25T03:56:09.911Z,16.21
2018-06-25T03:57:10.192Z,16.26
2018-06-25T03:58:10.214Z,16.21
2018-06-25T03:59:10.228Z,16.33
2018-06-25T04:00:09.982Z,16.24
2018-06-25T04:01:10.179Z,16.26
2018-06-25T04:02:10.286Z,16.21
2018-06-25T04:03:10.310Z,16.33
2018-06-25T04:04:10.055Z,16.38
2018-06-25T04:05:10.348Z,16.33
2018-06-25T04:06:10.126Z,16.33
2018-06-25T04:07:10.118Z,16.21
2018-06-25T04:08:10.135Z,16.31
2018-06-25T04:09:10.153Z,16.29
2018-06-25T04:10:10.179Z,16.32
2018-06-25T04:11:10.468Z,16.31
2018-06-25T04:12:10.743Z,16.33
2018-06-25T04:13:10.236Z,16.21
2018-06-25T04:14:09.981Z,16.35
2018-06-25T04:15:10.539Z,16.33
2018-06-25T04:16:10.295Z,16.38
2018-06-25T04:17:10.307Z,16.38
2018-06-25T04:18:10.600Z,16.35
2018-06-25T04:19:10.612Z,16.35
2018-06-25T04:20:10.644Z,16.33
2018-06-25T04:21:10.407Z,16.33
2018-06-25T04:22:10.680Z,16.35
2018-06-25T04:23:10.695Z,16.32
2018-06-25T04:24:10.718Z,16.43
2018-06-25T04:25:10.730Z,16.42
2018-06-25T04:26:10.496Z,16.38
2018-06-25T04:27:10.772Z,16.43
2018-06-25T04:28:10.255Z,16.38
2018-06-25T04:29:10.808Z,16.42
2018-06-25T04:30:10.562Z,16.38
2018-06-25T04:31:10.579Z,16.38
2018-06-25T04:32:10.874Z,16.42
2018-06-25T04:33:10.631Z,16.47
2018-06-25T04:34:10.906Z,16.46
2018-06-25T04:35:10.923Z,16.53
2018-06-25T04:36:10.682Z,16.43
2018-06-25T04:37:10.969Z,16.41
2018-06-25T04:38:10.988Z,16.49
2018-06-25T04:39:11.007Z,16.57
2018-06-25T04:40:11.067Z,16.49
2018-06-25T04:41:10.774Z,16.53
2018-06-25T04:42:10.528Z,16.53
2018-06-25T04:43:10.815Z,16.51
2018-06-25T04:44:10.568Z,16.53
2018-06-25T04:45:11.128Z,16.54
2018-06-25T04:46:11.142Z,16.54
2018-06-25T04:47:11.175Z,16.56
2018-06-25T04:48:10.914Z,16.54
2018-06-25T04:49:10.934Z,16.65
2018-06-25T04:50:10.951Z,16.6
2018-06-25T04:51:10.982Z,16.64
2018-06-25T04:52:11.261Z,16.64
2018-06-25T04:53:11.276Z,16.64
2018-06-25T04:54:11.298Z,16.66
2018-06-25T04:55:11.312Z,16.6
2018-06-25T04:56:10.802Z,16.65
2018-06-25T04:57:11.090Z,16.75
2018-06-25T04:58:11.109Z,16.69
2018-06-25T04:59:11.394Z,16.74
2018-06-25T05:00:11.147Z,16.81
2018-06-25T05:01:11.230Z,16.78
2018-06-25T05:02:11.495Z,16.74
2018-06-25T05:03:11.475Z,16.79
2018-06-25T05:04:11.501Z,16.79
2018-06-25T05:05:10.978Z,16.79
2018-06-25T05:06:11.266Z,16.81
2018-06-25T05:07:11.283Z,16.81
2018-06-25T05:08:11.302Z,16.79
2018-06-25T05:09:11.328Z,16.87
2018-06-25T05:10:11.356Z,16.91
2018-06-25T05:11:11.632Z,16.84
2018-06-25T05:12:11.383Z,16.83
2018-06-25T05:13:11.667Z,16.89
2018-06-25T05:14:11.426Z,16.89
2018-06-25T05:15:11.440Z,16.86
2018-06-25T05:16:11.733Z,16.91
2018-06-25T05:17:11.754Z,16.9
2018-06-25T05:18:11.507Z,16.91
2018-06-25T05:19:11.788Z,16.87
2018-06-25T05:20:11.810Z,16.91
2018-06-25T05:21:11.560Z,16.87
2018-06-25T05:22:11.579Z,16.89
2018-06-25T05:23:11.863Z,16.9
2018-06-25T05:24:11.881Z,16.89
2018-06-25T05:25:11.905Z,16.94
2018-06-25T05:26:11.922Z,16.99
2018-06-25T05:27:11.411Z,16.91
2018-06-25T05:28:11.968Z,16.96
2018-06-25T05:29:12.056Z,17.02
2018-06-25T05:30:11.738Z,17.04
2018-06-25T05:31:12.024Z,16.97
2018-06-25T05:32:12.042Z,16.91
2018-06-25T05:33:12.060Z,16.94
2018-06-25T05:34:12.084Z,17.02
2018-06-25T05:35:12.099Z,17.04
2018-06-25T05:36:12.124Z,17.01
2018-06-25T05:37:12.138Z,16.94
2018-06-25T05:38:12.160Z,16.99
2018-06-25T05:39:12.179Z,16.96
2018-06-25T05:40:11.932Z,16.96
2018-06-25T05:41:12.223Z,17.09
2018-06-25T05:42:12.245Z,16.99
2018-06-25T05:43:11.992Z,17.05
2018-06-25T05:44:12.009Z,17.02
2018-06-25T05:45:12.308Z,17.04
2018-06-25T05:46:12.328Z,17.08
2018-06-25T05:47:12.392Z,17.04
2018-06-25T05:48:12.362Z,17.02
2018-06-25T05:49:11.845Z,17.11
2018-06-25T05:50:12.403Z,17.15
2018-06-25T05:51:12.152Z,17.12
2018-06-25T05:52:12.172Z,17.11
2018-06-25T05:53:12.192Z,17.14
2018-06-25T05:54:12.217Z,17.12
2018-06-25T05:55:12.497Z,17.23
2018-06-25T05:56:12.516Z,17.22
2018-06-25T05:57:12.535Z,17.22
2018-06-25T05:58:12.553Z,17.23
2018-06-25T05:59:12.579Z,17.23
2018-06-25T06:00:12.598Z,17.24
2018-06-25T06:01:12.617Z,17.39
2018-06-25T06:02:12.368Z,17.36
2018-06-25T06:03:12.387Z,17.33
2018-06-25T06:04:12.517Z,17.36
2018-06-25T06:05:12.694Z,17.36
2018-06-25T06:06:12.719Z,17.39
2018-06-25T06:07:12.788Z,17.39
2018-06-25T06:08:12.754Z,17.38
2018-06-25T06:09:12.737Z,17.46
2018-06-25T06:10:12.549Z,17.52
2018-06-25T06:11:12.545Z,17.49
2018-06-25T06:12:12.834Z,17.48
2018-06-25T06:13:12.882Z,17.56
2018-06-25T06:14:12.706Z,17.54
2018-06-25T06:15:12.929Z,17.56
2018-06-25T06:16:12.910Z,17.63
2018-06-25T06:17:12.711Z,17.64
2018-06-25T06:18:12.685Z,17.67
2018-06-25T06:19:12.975Z,17.7
2018-06-25T06:20:12.990Z,17.65
2018-06-25T06:21:12.485Z,17.72
2018-06-25T06:22:12.767Z,17.83
2018-06-25T06:23:12.519Z,17.65
2018-06-25T06:24:13.078Z,17.85
2018-06-25T06:25:13.101Z,17.79
2018-06-25T06:26:12.849Z,17.76
2018-06-25T06:27:13.135Z,17.85
2018-06-25T06:28:13.182Z,17.83
2018-06-25T06:29:12.910Z,17.94
2018-06-25T06:30:12.944Z,17.86
2018-06-25T06:31:13.220Z,17.97
2018-06-25T06:32:13.409Z,17.97
2018-06-25T06:33:12.995Z,18.07
2018-06-25T06:34:13.005Z,17.97
2018-06-25T06:35:12.762Z,18.08
2018-06-25T06:36:13.318Z,18.05
2018-06-25T06:37:13.333Z,18.1
2018-06-25T06:38:13.090Z,18.11
2018-06-25T06:39:13.109Z,18.15
2018-06-25T06:40:13.658Z,18.2
2018-06-25T06:41:13.152Z,18.26
2018-06-25T06:42:13.479Z,18.22
2018-06-25T06:43:13.193Z,18.31
2018-06-25T06:44:13.207Z,18.29
2018-06-25T06:45:13.280Z,18.38
2018-06-25T06:46:13.255Z,18.26
2018-06-25T06:47:13.541Z,18.41
2018-06-25T06:48:13.559Z,18.47
2018-06-25T06:49:13.315Z,18.5
2018-06-25T06:50:13.334Z,18.49
2018-06-25T06:51:13.355Z,18.56
2018-06-25T06:52:13.371Z,18.59
2018-06-25T06:53:13.717Z,18.6
2018-06-25T06:54:13.412Z,18.59
2018-06-25T06:55:13.706Z,18.65
2018-06-25T06:56:13.456Z,18.7
2018-06-25T06:57:13.207Z,18.73
2018-06-25T06:58:13.770Z,18.77
2018-06-25T06:59:13.516Z,18.8
2018-06-25T07:00:13.538Z,18.78
2018-06-25T07:01:13.833Z,18.74
2018-06-25T07:02:13.848Z,18.83
2018-06-25T07:03:13.646Z,18.89
2018-06-25T07:04:13.622Z,18.84
2018-06-25T07:05:13.370Z,18.86
2018-06-25T07:06:13.930Z,18.89
2018-06-25T07:07:13.412Z,18.92
2018-06-25T07:08:13.971Z,19
2018-06-25T07:09:14.001Z,18.93
2018-06-25T07:10:14.113Z,18.98
2018-06-25T07:11:14.042Z,19.08
2018-06-25T07:12:14.053Z,19.11
2018-06-25T07:13:14.074Z,19.22
2018-06-25T07:14:14.099Z,19.14
2018-06-25T07:15:14.114Z,19.15
2018-06-25T07:16:13.870Z,19.21
2018-06-25T07:17:13.893Z,19.12
2018-06-25T07:18:14.176Z,19.15
2018-06-25T07:19:13.934Z,19.16
2018-06-25T07:20:13.952Z,19.18
2018-06-25T07:21:13.983Z,19.19
2018-06-25T07:22:14.260Z,19.15
2018-06-25T07:23:14.019Z,19.18
2018-06-25T07:24:13.773Z,19.14
2018-06-25T07:25:14.332Z,19.18
2018-06-25T07:26:14.345Z,19.21
2018-06-25T07:27:14.370Z,19.3
2018-06-25T07:28:14.386Z,19.3
2018-06-25T07:29:14.569Z,19.22
2018-06-25T07:30:14.448Z,19.31
2018-06-25T07:31:14.449Z,19.31
2018-06-25T07:32:14.470Z,19.31
2018-06-25T07:33:14.490Z,19.37
2018-06-25T07:34:14.510Z,19.37
2018-06-25T07:35:14.276Z,19.55
2018-06-25T07:36:14.553Z,19.54
2018-06-25T07:37:14.577Z,19.59
2018-06-25T07:38:14.605Z,19.74
2018-06-25T07:39:14.090Z,19.76
2018-06-25T07:40:14.644Z,19.77
2018-06-25T07:41:14.660Z,19.91
2018-06-25T07:42:14.420Z,19.92
2018-06-25T07:43:14.716Z,20.04
2018-06-25T07:44:14.721Z,20.06
2018-06-25T07:45:14.742Z,20.09
2018-06-25T07:46:14.766Z,20.11
2018-06-25T07:47:15.182Z,20.28
2018-06-25T07:48:14.538Z,20.25
2018-06-25T07:49:14.835Z,20.26
2018-06-25T07:50:14.850Z,20.29
2018-06-25T07:51:14.872Z,20.41
2018-06-25T07:52:14.901Z,20.44
2018-06-25T07:53:14.721Z,20.44
2018-06-25T07:54:14.943Z,20.47
2018-06-25T07:55:14.952Z,20.47
2018-06-25T07:56:14.983Z,20.55
2018-06-25T07:57:14.738Z,20.6
2018-06-25T07:58:14.750Z,20.59
2018-06-25T07:59:15.046Z,20.62
2018-06-25T08:00:14.816Z,20.65
2018-06-25T08:01:15.084Z,20.65
2018-06-25T08:02:14.837Z,20.69
2018-06-25T08:03:14.864Z,20.72
2018-06-25T08:04:15.149Z,20.74
2018-06-25T08:05:15.171Z,20.75
2018-06-25T08:06:14.665Z,20.81
2018-06-25T08:07:15.224Z,20.82
2018-06-25T08:08:14.978Z,20.81
2018-06-25T08:09:15.268Z,20.85
2018-06-25T08:10:15.485Z,20.9
2018-06-25T08:11:15.302Z,20.93
2018-06-25T08:12:15.370Z,20.95
2018-06-25T08:13:15.365Z,20.88
2018-06-25T08:14:15.369Z,21
2018-06-25T08:15:15.385Z,21.03
2018-06-25T08:16:15.211Z,21.11
2018-06-25T08:17:15.160Z,21.12
2018-06-25T08:18:15.456Z,21.18
2018-06-25T08:19:15.480Z,21.22
2018-06-25T08:20:15.275Z,21.25
2018-06-25T08:21:15.522Z,21.3
2018-06-25T08:22:15.540Z,21.29
2018-06-25T08:23:15.567Z,21.3
2018-06-25T08:24:15.582Z,21.35
2018-06-25T08:25:15.608Z,21.33
2018-06-25T08:26:15.357Z,21.39
2018-06-25T08:27:15.652Z,21.37
2018-06-25T08:28:15.133Z,21.4
2018-06-25T08:29:15.423Z,21.42
2018-06-25T08:30:16.095Z,21.5
2018-06-25T08:31:15.199Z,21.52
2018-06-25T08:32:15.768Z,21.64
2018-06-25T08:33:15.244Z,21.77
2018-06-25T08:34:16.188Z,21.83
2018-06-25T08:35:15.291Z,21.91
2018-06-25T08:36:15.848Z,21.96
2018-06-25T08:37:15.338Z,21.99
2018-06-25T08:38:15.884Z,22
2018-06-25T08:39:15.642Z,22.1
2018-06-25T08:40:16.005Z,22.23
2018-06-25T08:41:16.158Z,22.26
2018-06-25T08:42:15.709Z,22.33
2018-06-25T08:43:15.734Z,22.38
2018-06-25T08:44:16.020Z,22.43
2018-06-25T08:45:16.055Z,22.44
2018-06-25T08:46:16.065Z,22.47
2018-06-25T08:47:16.092Z,22.53
2018-06-25T08:48:16.115Z,22.48
2018-06-25T08:49:15.862Z,22.48
2018-06-25T08:50:16.160Z,22.45
2018-06-25T08:51:16.177Z,22.48
2018-06-25T08:52:15.936Z,22.43
2018-06-25T08:53:15.971Z,22.44
2018-06-25T08:54:16.260Z,22.53
2018-06-25T08:55:16.008Z,22.53
2018-06-25T08:56:16.087Z,22.53
2018-06-25T08:57:15.778Z,22.51
2018-06-25T08:58:16.350Z,22.54
2018-06-25T08:59:16.090Z,22.6
2018-06-25T09:00:16.381Z,22.57
2018-06-25T09:01:16.151Z,22.62
2018-06-25T09:02:16.422Z,22.57
2018-06-25T09:03:16.734Z,22.65
2018-06-25T09:04:16.217Z,22.65
2018-06-25T09:05:16.266Z,22.65
2018-06-25T09:06:16.522Z,22.65
2018-06-25T09:07:16.273Z,22.69
2018-06-25T09:08:16.563Z,22.8
2018-06-25T09:09:16.588Z,22.68
2018-06-25T09:10:16.658Z,22.7
2018-06-25T09:11:16.363Z,22.84
2018-06-25T09:12:16.656Z,22.83
2018-06-25T09:13:16.410Z,22.8
2018-06-25T09:14:16.695Z,22.81
2018-06-25T09:15:17.062Z,22.78
2018-06-25T09:16:16.745Z,22.88
2018-06-25T09:17:16.764Z,22.88
2018-06-25T09:18:16.518Z,22.91
2018-06-25T09:19:16.817Z,22.99
2018-06-25T09:20:16.571Z,23
2018-06-25T09:21:16.597Z,22.98
2018-06-25T09:22:17.091Z,22.99
2018-06-25T09:23:16.908Z,22.93
2018-06-25T09:24:16.931Z,23.05
2018-06-25T09:25:17.006Z,23.02
2018-06-25T09:26:16.975Z,22.96
2018-06-25T09:27:16.730Z,23.1
2018-06-25T09:28:16.754Z,23.03
2018-06-25T09:29:16.778Z,23.13
2018-06-25T09:30:17.066Z,23.17
2018-06-25T09:31:17.086Z,23.25
2018-06-25T09:32:17.111Z,23.23
2018-06-25T09:33:16.878Z,23.23
2018-06-25T09:34:17.164Z,23.28
2018-06-25T09:35:17.241Z,23.36
2018-06-25T09:36:17.215Z,23.43
2018-06-25T09:37:17.235Z,23.51
2018-06-25T09:38:17.256Z,23.61
2018-06-25T09:39:17.283Z,23.69
2018-06-25T09:40:17.296Z,23.77
2018-06-25T09:41:17.741Z,23.69
2018-06-25T09:42:17.076Z,23.87
2018-06-25T09:43:17.105Z,23.88
2018-06-25T09:44:17.393Z,24.01
2018-06-25T09:45:17.426Z,24.06
2018-06-25T09:46:17.438Z,24.17
2018-06-25T09:47:17.199Z,24.2
2018-06-25T09:48:17.546Z,24.38
2018-06-25T09:49:17.509Z,24.38
2018-06-25T09:50:17.532Z,24.43
2018-06-25T09:51:17.560Z,24.47
2018-06-25T09:52:17.309Z,24.65
2018-06-25T09:53:17.600Z,24.65
2018-06-25T09:54:17.630Z,24.65
2018-06-25T09:55:17.817Z,24.7
2018-06-25T09:56:17.677Z,24.74
2018-06-25T09:57:17.697Z,24.77
2018-06-25T09:58:17.720Z,24.76
2018-06-25T09:59:17.501Z,24.76
2018-06-25T10:00:17.504Z,24.8
2018-06-25T10:01:17.259Z,24.76
2018-06-25T10:02:17.828Z,24.81
2018-06-25T10:03:17.838Z,24.8
2018-06-25T10:04:17.598Z,24.88
2018-06-25T10:05:17.895Z,24.89
2018-06-25T10:06:17.648Z,24.93
2018-06-25T10:07:17.967Z,24.98
2018-06-25T10:08:17.694Z,24.96
2018-06-25T10:09:17.450Z,25.06
2018-06-25T10:10:17.744Z,25.14
2018-06-25T10:11:18.032Z,25.21
2018-06-25T10:12:18.061Z,25.23
2018-06-25T10:13:17.815Z,25.25
2018-06-25T10:14:17.838Z,25.33
2018-06-25T10:15:18.134Z,25.41
2018-06-25T10:16:18.153Z,25.48
2018-06-25T10:17:17.912Z,25.43
2018-06-25T10:18:17.934Z,25.55
2018-06-25T10:19:17.963Z,25.47
2018-06-25T10:20:17.986Z,25.65
2018-06-25T10:21:18.442Z,25.73
2018-06-25T10:22:18.032Z,25.7
2018-06-25T10:23:18.060Z,25.73
2018-06-25T10:24:18.354Z,25.84
2018-06-25T10:25:17.840Z,25.81
2018-06-25T10:26:18.410Z,25.95
2018-06-25T10:27:18.426Z,26.07
2018-06-25T10:28:18.452Z,26.09
2018-06-25T10:29:18.209Z,26.29
2018-06-25T10:30:18.498Z,26.26
2018-06-25T10:31:18.529Z,26.44
2018-06-25T10:32:18.286Z,26.59
2018-06-25T10:33:18.572Z,26.62
2018-06-25T10:34:18.328Z,26.81
2018-06-25T10:35:18.633Z,26.92
2018-06-25T10:36:18.644Z,26.97
2018-06-25T10:37:18.409Z,27.07
2018-06-25T10:38:18.701Z,27.14
2018-06-25T10:39:18.721Z,27.27
2018-06-25T10:40:18.747Z,27.26
2018-06-25T10:41:18.776Z,27.33
2018-06-25T10:42:18.710Z,27.37
2018-06-25T10:43:18.835Z,27.47
2018-06-25T10:44:18.856Z,27.51
2018-06-25T10:45:18.610Z,27.51
2018-06-25T10:46:18.368Z,27.6
2018-06-25T10:47:18.931Z,27.73
2018-06-25T10:48:18.685Z,27.7
2018-06-25T10:49:18.982Z,27.78
2018-06-25T10:50:18.736Z,27.8
2018-06-25T10:51:18.812Z,28.01
2018-06-25T10:52:19.056Z,28.04
2018-06-25T10:53:18.815Z,28.04
2018-06-25T10:54:18.840Z,28.14
2018-06-25T10:55:19.134Z,28.17
2018-06-25T10:56:19.161Z,28.22
2018-06-25T10:57:19.196Z,28.27
2018-06-25T10:58:19.211Z,28.27
2018-06-25T10:59:19.019Z,28.35
2018-06-25T11:00:19.670Z,28.44
2018-06-25T11:01:19.430Z,28.47
2018-06-25T11:02:19.319Z,28.44
2018-06-25T11:03:19.340Z,28.49
2018-06-25T11:04:19.374Z,28.6
2018-06-25T11:05:19.395Z,28.7
2018-06-25T11:06:19.418Z,28.76
2018-06-25T11:07:19.966Z,28.75
2018-06-25T11:08:19.212Z,28.82
2018-06-25T11:09:19.503Z,28.88
2018-06-25T11:10:19.524Z,29.05
2018-06-25T11:11:19.314Z,29.1
2018-06-25T11:12:19.313Z,29.14
2018-06-25T11:13:19.607Z,29.19
2018-06-25T11:14:19.636Z,29.35
2018-06-25T11:15:19.661Z,29.41
2018-06-25T11:16:19.694Z,29.44
2018-06-25T11:17:19.721Z,29.44
2018-06-25T11:18:19.476Z,29.49
2018-06-25T11:19:19.773Z,29.5
2018-06-25T11:20:19.791Z,29.51
2018-06-25T11:21:19.823Z,29.54
2018-06-25T11:22:19.852Z,29.53
2018-06-25T11:23:19.609Z,29.53
2018-06-25T11:24:19.902Z,29.57
2018-06-25T11:25:19.665Z,29.56
2018-06-25T11:26:19.686Z,29.54
2018-06-25T11:27:20.205Z,29.61
2018-06-25T11:28:19.748Z,29.69
2018-06-25T11:29:19.774Z,29.84
2018-06-25T11:30:19.855Z,29.97
2018-06-25T11:31:19.823Z,30.08
2018-06-25T11:32:20.119Z,30.06
2018-06-25T11:33:19.878Z,30.21
2018-06-25T11:34:20.174Z,30.16
2018-06-25T11:35:19.936Z,30.28
2018-06-25T11:36:19.964Z,30.27
2018-06-25T11:37:19.724Z,30.28
2018-06-25T11:38:20.028Z,30.34
2018-06-25T11:39:20.047Z,30.32
2018-06-25T11:40:20.354Z,30.44
2018-06-25T11:41:20.367Z,30.5
2018-06-25T11:42:20.127Z,30.51
2018-06-25T11:43:20.423Z,30.51
2018-06-25T11:44:20.450Z,30.69
2018-06-25T11:45:20.216Z,30.69
2018-06-25T11:46:20.509Z,30.73
2018-06-25T11:47:20.538Z,30.7
2018-06-25T11:48:20.295Z,30.78
2018-06-25T11:49:20.592Z,30.81
2018-06-25T11:50:20.354Z,30.88
2018-06-25T11:51:20.654Z,30.97
2018-06-25T11:52:20.684Z,31.03
2018-06-25T11:53:20.722Z,31.12
2018-06-25T11:54:20.732Z,31.18
2018-06-25T11:55:20.767Z,31.27
2018-06-25T11:56:20.792Z,31.4
2018-06-25T11:57:20.292Z,31.28
2018-06-25T11:58:20.854Z,31.42
2018-06-25T11:59:20.607Z,31.56
2018-06-25T12:00:20.912Z,31.64
2018-06-25T12:01:20.930Z,31.65
2018-06-25T12:02:20.725Z,31.65
2018-06-25T12:03:21.690Z,31.69
2018-06-25T12:04:21.024Z,31.64
2018-06-25T12:05:21.057Z,31.64
2018-06-25T12:06:21.076Z,31.66
2018-06-25T12:07:20.868Z,31.71
2018-06-25T12:08:20.869Z,31.78
2018-06-25T12:09:20.895Z,31.97
2018-06-25T12:10:20.660Z,31.97
2018-06-25T12:11:21.216Z,32
2018-06-25T12:12:21.394Z,32.16
2018-06-25T12:13:21.017Z,32.21
2018-06-25T12:14:21.176Z,32.36
2018-06-25T12:15:21.337Z,32.38
2018-06-25T12:16:21.370Z,32.52
2018-06-25T12:17:21.413Z,32.65
2018-06-25T12:18:21.432Z,32.65
2018-06-25T12:19:21.454Z,32.65
2018-06-25T12:20:21.489Z,32.68
2018-06-25T12:21:21.517Z,32.68
2018-06-25T12:22:21.540Z,32.64
2018-06-25T12:23:21.570Z,32.73
2018-06-25T12:24:21.607Z,32.73
2018-06-25T12:25:21.360Z,32.87
2018-06-25T12:26:21.726Z,32.95
2018-06-25T12:27:21.699Z,33.05
2018-06-25T12:28:21.489Z,33.09
2018-06-25T12:29:21.748Z,33.17
2018-06-25T12:30:21.511Z,33.3
2018-06-25T12:31:21.810Z,33.37
2018-06-25T12:32:21.834Z,33.4
2018-06-25T12:33:21.870Z,33.53
2018-06-25T12:34:21.895Z,33.64
2018-06-25T12:35:21.925Z,33.68
2018-06-25T12:36:21.423Z,33.8
2018-06-25T12:37:21.988Z,33.81
2018-06-25T12:38:21.745Z,33.89
2018-06-25T12:39:21.781Z,33.99
2018-06-25T12:40:22.087Z,34.1
2018-06-25T12:41:21.880Z,34.21
2018-06-25T12:42:21.876Z,34.24
2018-06-25T12:43:21.907Z,34.38
2018-06-25T12:44:22.239Z,34.54
2018-06-25T12:45:22.230Z,34.61
2018-06-25T12:46:21.726Z,34.67
2018-06-25T12:47:22.031Z,34.71
2018-06-25T12:48:22.399Z,34.71
2018-06-25T12:49:22.085Z,34.75
2018-06-25T12:50:22.118Z,34.7
2018-06-25T12:51:22.145Z,34.67
2018-06-25T12:52:22.177Z,34.71
2018-06-25T12:53:21.945Z,34.71
2018-06-25T12:54:22.238Z,34.74
2018-06-25T12:55:22.006Z,34.66